createdAt,value
2018-03-12T00:00:53.510Z,99.31
2018-03-12T00:03:21.061Z,100.00
2018-03-12T00:05:48.514Z,100.00
2018-03-12T00:08:15.966Z,100.00
2018-03-12T00:10:43.433Z,99.69
2018-03-12T00:13:10.881Z,99.52
2018-03-12T00:15:38.363Z,99.00
2018-03-12T00:18:05.809Z,99.27
2018-03-12T00:20:33.249Z,98.64
2018-03-12T00:23:00.732Z,98.53
2018-03-12T00:25:28.174Z,98.55
2018-03-12T00:27:55.839Z,98.63
2018-03-12T00:30:23.278Z,98.30
2018-03-12T00:32:50.726Z,97.65
2018-03-12T00:35:18.205Z,97.50
2018-03-12T00:37:45.654Z,98.34
2018-03-12T00:40:13.281Z,98.62
2018-03-12T00:42:40.737Z,99.18
2018-03-12T00:45:08.181Z,99.40
2018-03-12T00:47:35.667Z,99.77
2018-03-12T00:50:03.112Z,99.96
2018-03-12T00:52:30.854Z,100.00
2018-03-12T00:54:58.301Z,100.00
2018-03-12T00:57:25.769Z,100.00
2018-03-12T00:59:53.235Z,100.00
2018-03-12T01:02:20.705Z,100.00
2018-03-12T01:04:48.209Z,100.00
2018-03-12T01:07:15.683Z,100.00
2018-03-12T01:09:43.133Z,100.00
2018-03-12T01:12:10.617Z,100.00
2018-03-12T01:14:38.069Z,100.00
2018-03-12T01:17:05.685Z,100.00
2018-03-12T01:19:33.147Z,100.00
2018-03-12T01:22:00.593Z,100.00
2018-03-12T01:24:28.072Z,100.00
2018-03-12T01:26:55.553Z,100.00
2018-03-12T01:29:23.511Z,100.00
2018-03-12T01:31:50.958Z,100.00
2018-03-12T01:34:18.404Z,100.00
2018-03-12T01:36:45.873Z,100.00
2018-03-12T01:39:13.321Z,100.00
2018-03-12T01:41:41.141Z,100.00
2018-03-12T01:44:08.606Z,100.00
2018-03-12T01:46:36.078Z,100.00
2018-03-12T01:49:03.557Z,100.00
2018-03-12T01:51:31.011Z,100.00
2018-03-12T01:53:58.709Z,100.00
2018-03-12T01:56:26.161Z,100.00
2018-03-12T01:58:53.638Z,100.00
2018-03-12T02:01:21.109Z,100.00
2018-03-12T02:03:48.557Z,100.00
2018-03-12T02:06:16.041Z,100.00
2018-03-12T02:08:43.517Z,100.00
2018-03-12T02:11:10.972Z,100.00
2018-03-12T02:13:38.446Z,100.00
2018-03-12T02:16:05.893Z,100.00
2018-03-12T02:18:33.736Z,100.00
2018-03-12T02:21:01.196Z,100.00
2018-03-12T02:23:28.657Z,100.00
2018-03-12T02:25:56.133Z,100.00
2018-03-12T02:28:23.610Z,100.00
2018-03-12T02:30:51.133Z,100.00
2018-03-12T02:33:18.598Z,100.00
2018-03-12T02:35:46.050Z,100.00
2018-03-12T02:38:13.517Z,100.00
2018-03-12T02:40:40.975Z,100.00
2018-03-12T02:43:08.466Z,100.00
2018-03-12T02:45:35.925Z,100.00
2018-03-12T02:48:03.374Z,100.00
2018-03-12T02:50:30.845Z,100.00
2018-03-12T02:52:58.300Z,100.00
2018-03-12T02:55:25.798Z,100.00
2018-03-12T02:57:53.249Z,100.00
2018-03-12T03:00:20.712Z,100.00
2018-03-12T03:02:48.187Z,100.00
2018-03-12T03:05:15.645Z,100.00
2018-03-12T03:07:43.316Z,100.00
2018-03-12T03:10:10.762Z,100.00
2018-03-12T03:12:38.212Z,100.00
2018-03-12T03:15:05.681Z,100.00
2018-03-12T03:17:33.133Z,100.00
2018-03-12T03:20:00.617Z,100.00
2018-03-12T03:22:28.076Z,100.00
2018-03-12T03:24:55.555Z,100.00
2018-03-12T03:27:23.030Z,100.00
2018-03-12T03:29:50.497Z,100.00
2018-03-12T03:32:17.996Z,100.00
2018-03-12T03:34:45.441Z,100.00
2018-03-12T03:37:12.902Z,100.00
2018-03-12T03:39:40.394Z,100.00
2018-03-12T03:42:07.842Z,100.00
2018-03-12T03:44:35.329Z,100.00
2018-03-12T03:47:02.781Z,100.00
2018-03-12T03:49:30.229Z,100.00
2018-03-12T03:51:57.701Z,100.00
2018-03-12T03:54:25.145Z,100.00
2018-03-12T03:56:52.669Z,100.00
2018-03-12T03:59:20.120Z,100.00
2018-03-12T04:01:47.570Z,100.00
2018-03-12T04:04:15.052Z,100.00
2018-03-12T04:06:42.498Z,100.00
2018-03-12T04:09:10.145Z,100.00
2018-03-12T04:11:37.599Z,100.00
2018-03-12T04:14:05.054Z,100.00
2018-03-12T04:16:32.521Z,100.00
2018-03-12T04:18:59.984Z,100.00
2018-03-12T04:21:27.466Z,100.00
2018-03-12T04:23:54.918Z,100.00
2018-03-12T04:26:22.378Z,100.00
2018-03-12T04:28:49.860Z,100.00
2018-03-12T04:31:17.310Z,100.00
2018-03-12T04:33:45.057Z,100.00
2018-03-12T04:36:12.526Z,100.00
2018-03-12T04:38:39.993Z,100.00
2018-03-12T04:41:07.481Z,100.00
2018-03-12T04:43:34.933Z,100.00
2018-03-12T04:46:02.713Z,100.00
2018-03-12T04:48:30.169Z,100.00
2018-03-12T04:50:57.621Z,100.00
2018-03-12T04:53:25.105Z,100.00
2018-03-12T04:55:52.573Z,100.00
2018-03-12T04:58:20.173Z,100.00
2018-03-12T05:00:47.621Z,100.00
2018-03-12T05:03:15.069Z,100.00
2018-03-12T05:05:42.545Z,100.00
2018-03-12T05:08:09.997Z,100.00
2018-03-12T05:10:37.473Z,100.00
2018-03-12T05:13:04.926Z,100.00
2018-03-12T05:15:32.383Z,100.00
2018-03-12T05:17:59.860Z,100.00
2018-03-12T05:20:27.314Z,100.00
2018-03-12T05:22:54.906Z,100.00
2018-03-12T05:25:22.349Z,100.00
2018-03-12T05:27:49.798Z,100.00
2018-03-12T05:30:17.289Z,100.00
2018-03-12T05:32:44.737Z,100.00
2018-03-12T05:35:12.537Z,100.00
2018-03-12T05:37:39.988Z,100.00
2018-03-12T05:40:07.451Z,100.00
2018-03-12T05:42:34.919Z,100.00
2018-03-12T05:45:02.378Z,100.00
2018-03-12T05:47:30.288Z,100.00
2018-03-12T05:49:57.741Z,100.00
2018-03-12T05:52:25.209Z,100.00
2018-03-12T05:54:52.685Z,100.00
2018-03-12T05:57:20.149Z,100.00
2018-03-12T05:59:47.674Z,100.00
2018-03-12T06:02:15.165Z,100.00
2018-03-12T06:04:42.618Z,100.00
2018-03-12T06:07:10.090Z,100.00
2018-03-12T06:09:37.541Z,100.00
2018-03-12T06:12:05.289Z,100.00
2018-03-12T06:14:32.729Z,99.95
2018-03-12T06:17:00.190Z,98.79
2018-03-12T06:19:27.662Z,98.67
2018-03-12T06:21:55.130Z,98.20
2018-03-12T06:24:22.746Z,98.28
2018-03-12T06:26:50.193Z,98.30
2018-03-12T06:29:17.641Z,98.65
2018-03-12T06:31:45.127Z,98.76
2018-03-12T06:34:12.573Z,98.68
2018-03-12T06:36:40.289Z,97.86
2018-03-12T06:39:07.734Z,97.61
2018-03-12T06:41:35.219Z,97.27
2018-03-12T06:44:02.709Z,96.88
2018-03-12T06:46:30.162Z,96.84
2018-03-12T06:48:57.857Z,97.74
2018-03-12T06:51:25.321Z,98.77
2018-03-12T06:53:52.765Z,97.89
2018-03-12T06:56:20.307Z,97.81
2018-03-12T06:58:47.785Z,97.27
2018-03-12T07:01:15.494Z,97.46
2018-03-12T07:03:42.950Z,97.03
2018-03-12T07:06:10.430Z,96.77
2018-03-12T07:08:37.903Z,97.02
2018-03-12T07:11:05.362Z,97.18
2018-03-12T07:13:32.953Z,96.97
2018-03-12T07:16:00.405Z,96.83
2018-03-12T07:18:27.853Z,97.07
2018-03-12T07:20:55.326Z,97.15
2018-03-12T07:23:22.774Z,96.50
2018-03-12T07:25:50.511Z,96.74
2018-03-12T07:28:17.957Z,96.90
2018-03-12T07:30:45.424Z,96.55
2018-03-12T07:33:12.894Z,96.10
2018-03-12T07:35:40.362Z,95.63
2018-03-12T07:38:07.961Z,94.68
2018-03-12T07:40:35.440Z,95.03
2018-03-12T07:43:02.890Z,95.37
2018-03-12T07:45:30.359Z,94.59
2018-03-12T07:47:57.805Z,94.00
2018-03-12T07:50:25.505Z,94.78
2018-03-12T07:52:52.961Z,95.07
2018-03-12T07:55:20.410Z,95.33
2018-03-12T07:57:47.905Z,94.80
2018-03-12T08:00:15.388Z,95.03
2018-03-12T08:02:43.117Z,95.04
2018-03-12T08:05:10.564Z,95.43
2018-03-12T08:07:38.021Z,95.76
2018-03-12T08:10:05.498Z,95.31
2018-03-12T08:12:33.024Z,94.59
2018-03-12T08:15:00.516Z,94.51
2018-03-12T08:17:27.982Z,94.40
2018-03-12T08:19:55.438Z,94.75
2018-03-12T08:22:22.915Z,94.40
2018-03-12T08:24:50.365Z,94.14
2018-03-12T08:27:17.837Z,94.77
2018-03-12T08:29:45.315Z,94.18
2018-03-12T08:32:12.761Z,93.43
2018-03-12T08:34:40.229Z,93.80
2018-03-12T08:37:07.690Z,95.12
2018-03-12T08:39:35.416Z,95.26
2018-03-12T08:42:02.861Z,95.25
2018-03-12T08:44:30.321Z,95.19
2018-03-12T08:46:57.785Z,94.01
2018-03-12T08:49:25.237Z,93.98
2018-03-12T08:51:52.717Z,94.38
2018-03-12T08:54:20.165Z,94.50
2018-03-12T08:56:47.613Z,94.47
2018-03-12T08:59:15.082Z,94.96
2018-03-12T09:01:42.529Z,93.87
2018-03-12T09:04:10.422Z,94.40
2018-03-12T09:06:37.885Z,93.97
2018-03-12T09:09:05.341Z,92.68
2018-03-12T09:11:32.818Z,92.71
2018-03-12T09:14:00.265Z,92.65
2018-03-12T09:16:28.088Z,92.35
2018-03-12T09:18:55.550Z,91.56
2018-03-12T09:21:23.209Z,90.87
2018-03-12T09:23:50.689Z,91.47
2018-03-12T09:26:18.137Z,89.68
2018-03-12T09:28:45.744Z,90.48
2018-03-12T09:31:13.189Z,90.24
2018-03-12T09:33:40.639Z,89.67
2018-03-12T09:36:08.162Z,90.19
2018-03-12T09:38:35.609Z,89.82
2018-03-12T09:41:03.441Z,89.81
2018-03-12T09:43:30.893Z,88.69
2018-03-12T09:45:58.341Z,89.34
2018-03-12T09:48:25.809Z,89.23
2018-03-12T09:50:53.290Z,88.95
2018-03-12T09:53:20.783Z,89.51
2018-03-12T09:55:48.234Z,87.14
2018-03-12T09:58:15.821Z,87.52
2018-03-12T10:00:43.286Z,85.84
2018-03-12T10:03:10.735Z,85.17
2018-03-12T10:05:38.398Z,84.48
2018-03-12T10:08:05.846Z,82.97
2018-03-12T10:10:33.895Z,81.93
2018-03-12T10:13:01.378Z,80.21
2018-03-12T10:15:28.818Z,78.96
2018-03-12T10:17:56.282Z,78.39
2018-03-12T10:20:23.721Z,77.73
2018-03-12T10:22:51.185Z,77.44
2018-03-12T10:25:18.665Z,78.13
2018-03-12T10:27:46.101Z,78.25
2018-03-12T10:30:13.701Z,78.08
2018-03-12T10:32:41.142Z,78.81
2018-03-12T10:35:08.616Z,78.66
2018-03-12T10:37:36.052Z,77.95
2018-03-12T10:40:03.489Z,78.81
2018-03-12T10:42:31.153Z,78.79
2018-03-12T10:44:58.589Z,78.48
2018-03-12T10:47:26.043Z,77.70
2018-03-12T10:49:53.501Z,76.62
2018-03-12T10:52:20.943Z,77.23
2018-03-12T10:54:48.613Z,77.26
2018-03-12T10:57:16.058Z,76.27
2018-03-12T10:59:43.503Z,75.79
2018-03-12T11:02:10.969Z,76.66
2018-03-12T11:04:38.413Z,77.96
2018-03-12T11:07:14.435Z,76.51
2018-03-12T11:09:41.870Z,75.13
2018-03-12T11:12:09.606Z,75.13
2018-03-12T11:14:37.056Z,76.23
2018-03-12T11:17:04.506Z,74.95
2018-03-12T11:19:32.014Z,75.57
2018-03-12T11:21:59.452Z,75.05
2018-03-12T11:24:27.045Z,74.42
2018-03-12T11:26:54.484Z,73.71
2018-03-12T11:29:21.925Z,74.37
2018-03-12T11:31:49.384Z,73.59
2018-03-12T11:34:16.827Z,73.40
2018-03-12T11:36:44.327Z,74.07
2018-03-12T11:39:11.781Z,73.81
2018-03-12T11:41:39.221Z,73.82
2018-03-12T11:44:06.690Z,72.60
2018-03-12T11:46:34.141Z,72.17
2018-03-12T11:49:01.751Z,72.95
2018-03-12T11:51:29.215Z,71.19
2018-03-12T11:53:56.657Z,71.50
2018-03-12T11:56:24.123Z,71.41
2018-03-12T11:58:51.563Z,70.89
2018-03-12T12:01:19.193Z,70.76
2018-03-12T12:03:46.642Z,70.41
2018-03-12T12:06:14.086Z,68.96
2018-03-12T12:08:41.546Z,69.47
2018-03-12T12:11:09.005Z,69.64
2018-03-12T12:13:36.827Z,70.51
2018-03-12T12:16:04.274Z,70.44
2018-03-12T12:18:31.709Z,69.54
2018-03-12T12:20:59.238Z,70.05
2018-03-12T12:23:26.642Z,70.53
2018-03-12T12:25:54.325Z,69.59
2018-03-12T12:28:21.766Z,69.39
2018-03-12T12:30:49.229Z,68.72
2018-03-12T12:33:16.691Z,68.64
2018-03-12T12:35:44.137Z,69.47
2018-03-12T12:38:11.606Z,68.75
2018-03-12T12:40:39.057Z,69.46
2018-03-12T12:43:06.505Z,69.02
2018-03-12T12:45:33.968Z,70.70
2018-03-12T12:48:01.405Z,70.69
2018-03-12T12:50:29.366Z,70.70
2018-03-12T12:52:56.827Z,70.75
2018-03-12T12:55:24.266Z,70.79
2018-03-12T12:57:51.752Z,70.75
2018-03-12T13:00:19.193Z,70.07
2018-03-12T13:02:46.681Z,69.48
2018-03-12T13:05:14.117Z,70.27
2018-03-12T13:07:41.585Z,70.48
2018-03-12T13:10:09.056Z,71.25
2018-03-12T13:12:36.505Z,73.56
2018-03-12T13:15:03.982Z,73.35
2018-03-12T13:17:31.421Z,72.34
2018-03-12T13:19:58.868Z,71.79
2018-03-12T13:22:26.326Z,71.14
2018-03-12T13:24:53.998Z,71.35
2018-03-12T13:27:21.693Z,71.90
2018-03-12T13:29:49.141Z,70.43
2018-03-12T13:32:16.581Z,70.68
2018-03-12T13:34:44.079Z,68.29
2018-03-12T13:37:11.506Z,67.52
2018-03-12T13:39:39.312Z,67.68
2018-03-12T13:42:06.750Z,66.92
2018-03-12T13:44:34.189Z,64.43
2018-03-12T13:47:01.649Z,63.91
2018-03-12T13:49:29.109Z,65.12
2018-03-12T13:51:56.818Z,64.48
2018-03-12T13:54:24.257Z,64.92
2018-03-12T13:56:51.705Z,65.12
2018-03-12T13:59:19.201Z,64.89
2018-03-12T14:01:46.641Z,64.31
2018-03-12T14:04:14.517Z,64.38
2018-03-12T14:06:41.953Z,64.50
2018-03-12T14:09:10.287Z,63.44
2018-03-12T14:11:37.757Z,64.26
2018-03-12T14:14:05.221Z,64.79
2018-03-12T14:16:32.690Z,63.73
2018-03-12T14:19:00.144Z,63.34
2018-03-12T14:21:27.610Z,62.98
2018-03-12T14:23:55.077Z,63.40
2018-03-12T14:26:22.516Z,65.03
2018-03-12T14:28:50.261Z,63.56
2018-03-12T14:31:17.721Z,64.03
2018-03-12T14:33:45.157Z,64.12
2018-03-12T14:36:12.629Z,64.60
2018-03-12T14:38:40.193Z,65.92
2018-03-12T14:41:07.790Z,66.96
2018-03-12T14:43:35.275Z,67.18
2018-03-12T14:46:02.717Z,68.59
2018-03-12T14:48:30.178Z,67.62
2018-03-12T14:50:57.618Z,67.32
2018-03-12T14:53:25.447Z,66.55
2018-03-12T14:55:52.882Z,65.14
2018-03-12T14:58:20.330Z,65.88
2018-03-12T15:00:47.793Z,64.53
2018-03-12T15:03:15.229Z,65.05
2018-03-12T15:05:42.717Z,66.16
2018-03-12T15:08:10.178Z,66.04
2018-03-12T15:10:37.622Z,65.66
2018-03-12T15:13:05.081Z,66.61
2018-03-12T15:15:32.521Z,66.94
2018-03-12T15:18:00.150Z,68.72
2018-03-12T15:20:27.602Z,70.83
2018-03-12T15:22:55.039Z,73.07
2018-03-12T15:25:22.501Z,72.63
2018-03-12T15:27:49.961Z,72.10
2018-03-12T15:30:17.622Z,74.23
2018-03-12T15:32:45.061Z,76.09
2018-03-12T15:35:12.502Z,77.82
2018-03-12T15:37:39.966Z,78.72
2018-03-12T15:40:07.417Z,79.69
2018-03-12T15:42:34.905Z,80.66
2018-03-12T15:45:02.353Z,80.27
2018-03-12T15:47:29.837Z,79.51
2018-03-12T15:49:57.269Z,80.56
2018-03-12T15:52:24.705Z,81.03
2018-03-12T15:54:52.310Z,81.17
2018-03-12T15:57:19.749Z,81.07
2018-03-12T15:59:47.189Z,79.43
2018-03-12T16:02:14.648Z,79.25
2018-03-12T16:04:42.128Z,79.19
2018-03-12T16:07:09.838Z,80.63
2018-03-12T16:09:37.277Z,80.59
2018-03-12T16:12:04.717Z,79.59
2018-03-12T16:14:32.181Z,78.59
2018-03-12T16:16:59.637Z,79.45
2018-03-12T16:19:27.308Z,79.00
2018-03-12T16:21:54.753Z,79.33
2018-03-12T16:24:22.196Z,78.77
2018-03-12T16:26:49.679Z,76.37
2018-03-12T16:29:17.159Z,77.87
2018-03-12T16:31:44.632Z,76.07
2018-03-12T16:34:12.089Z,76.96
2018-03-12T16:36:39.538Z,74.74
2018-03-12T16:39:07.010Z,73.56
2018-03-12T16:41:34.450Z,73.94
2018-03-12T16:44:02.090Z,73.22
2018-03-12T16:46:29.541Z,73.23
2018-03-12T16:48:56.994Z,73.33
2018-03-12T16:51:24.461Z,74.17
2018-03-12T16:53:51.909Z,73.75
2018-03-12T16:56:19.547Z,73.69
2018-03-12T16:58:46.986Z,73.25
2018-03-12T17:01:14.426Z,74.38
2018-03-12T17:03:41.897Z,73.96
2018-03-12T17:06:09.336Z,73.88
2018-03-12T17:08:36.997Z,74.23
2018-03-12T17:11:04.461Z,73.93
2018-03-12T17:13:31.920Z,74.94
2018-03-12T17:15:59.389Z,75.42
2018-03-12T17:18:26.837Z,74.94
2018-03-12T17:20:54.552Z,75.41
2018-03-12T17:23:21.989Z,74.69
2018-03-12T17:25:49.438Z,75.10
2018-03-12T17:28:16.933Z,75.29
2018-03-12T17:30:44.370Z,75.74
2018-03-12T17:33:11.962Z,74.40
2018-03-12T17:35:39.416Z,75.85
2018-03-12T17:38:06.857Z,77.05
2018-03-12T17:40:34.418Z,77.43
2018-03-12T17:43:01.863Z,77.17
2018-03-12T17:45:29.338Z,76.59
2018-03-12T17:47:56.785Z,78.08
2018-03-12T17:50:24.446Z,78.85
2018-03-12T17:52:52.552Z,77.99
2018-03-12T17:55:21.662Z,77.85
2018-03-12T17:57:49.203Z,77.03
2018-03-12T18:00:16.651Z,75.93
2018-03-12T18:02:44.119Z,76.18
2018-03-12T18:05:11.593Z,76.55
2018-03-12T18:07:39.071Z,76.22
2018-03-12T18:10:06.629Z,76.56
2018-03-12T18:12:34.134Z,76.85
2018-03-12T18:15:01.605Z,77.74
2018-03-12T18:17:29.122Z,78.42
2018-03-12T18:19:56.534Z,78.93
2018-03-12T18:22:24.013Z,78.74
2018-03-12T18:24:51.453Z,78.69
2018-03-12T18:27:18.903Z,78.78
2018-03-12T18:29:46.365Z,79.18
2018-03-12T18:34:50.345Z,80.17
2018-03-12T18:37:17.805Z,80.86
2018-03-12T18:39:45.249Z,80.65
2018-03-12T18:42:12.782Z,80.20
2018-03-12T18:44:40.271Z,80.81
2018-03-12T18:47:07.767Z,80.47
2018-03-12T18:49:35.218Z,80.41
2018-03-12T18:52:02.674Z,80.31
2018-03-12T18:54:30.154Z,80.54
2018-03-12T18:56:57.611Z,81.43
2018-03-12T18:59:25.097Z,82.25
2018-03-12T19:01:52.542Z,82.79
2018-03-12T19:04:19.990Z,82.92
2018-03-12T19:06:47.502Z,83.53
2018-03-12T19:09:14.953Z,83.27
2018-03-12T19:11:42.540Z,83.66
2018-03-12T19:14:10.085Z,83.58
2018-03-12T19:16:37.538Z,83.50
2018-03-12T19:19:05.013Z,83.63
2018-03-12T19:21:32.469Z,82.77
2018-03-12T19:24:00.128Z,82.94
2018-03-12T19:26:27.569Z,82.66
2018-03-12T19:28:55.030Z,82.77
2018-03-12T19:31:22.584Z,82.59
2018-03-12T19:33:50.052Z,82.72
2018-03-12T19:36:17.626Z,81.71
2018-03-12T19:38:45.090Z,82.27
2018-03-12T19:41:12.538Z,81.66
2018-03-12T19:43:40.005Z,81.21
2018-03-12T19:46:07.441Z,80.56
2018-03-12T19:48:35.253Z,79.96
2018-03-12T19:51:02.701Z,80.28
2018-03-12T19:53:30.142Z,80.13
2018-03-12T19:55:57.601Z,80.46
2018-03-12T19:58:26.073Z,80.00
2018-03-12T20:00:53.928Z,80.65
2018-03-12T20:03:22.237Z,81.16
2018-03-12T20:05:51.443Z,81.51
2018-03-12T20:08:18.922Z,80.67
2018-03-12T20:10:46.822Z,81.29
2018-03-12T20:13:17.350Z,81.98
2018-03-12T20:15:44.805Z,81.32
2018-03-12T20:18:13.977Z,82.42
2018-03-12T20:20:41.413Z,82.53
2018-03-12T20:23:09.226Z,83.35
2018-03-12T20:25:36.679Z,83.26
2018-03-12T20:28:04.200Z,83.03
2018-03-12T20:30:32.233Z,82.00
2018-03-12T20:32:59.677Z,81.73
2018-03-12T20:35:27.146Z,81.32
2018-03-12T20:37:55.470Z,81.77
2018-03-12T20:40:22.918Z,81.68
2018-03-12T20:42:50.436Z,82.65
2018-03-12T20:45:17.874Z,81.23
2018-03-12T20:47:45.313Z,81.47
2018-03-12T20:50:13.052Z,81.97
2018-03-12T20:52:40.555Z,80.97
2018-03-12T20:55:07.965Z,80.85
2018-03-12T20:57:35.650Z,80.01
2018-03-12T21:00:03.101Z,79.99
2018-03-12T21:02:31.321Z,80.51
2018-03-12T21:04:58.781Z,79.80
2018-03-12T21:07:26.230Z,79.92
2018-03-12T21:09:53.729Z,81.19
2018-03-12T21:12:21.169Z,79.95
2018-03-12T21:14:48.611Z,80.43
2018-03-12T21:17:16.066Z,81.08
2018-03-12T21:19:43.909Z,79.72
2018-03-12T21:22:11.387Z,80.04
2018-03-12T21:24:38.831Z,79.99
2018-03-12T21:27:06.274Z,79.30
2018-03-12T21:29:33.764Z,79.95
2018-03-12T21:32:01.217Z,80.25
2018-03-12T21:34:29.014Z,80.71
2018-03-12T21:36:56.471Z,80.83
2018-03-12T21:39:24.012Z,80.95
2018-03-12T21:41:51.474Z,81.43
2018-03-12T21:44:18.936Z,82.03
2018-03-12T21:46:46.404Z,82.12
2018-03-12T21:49:13.842Z,81.74
2018-03-12T21:51:41.301Z,82.38
2018-03-12T21:54:08.757Z,82.15
2018-03-12T21:56:36.198Z,81.96
2018-03-12T21:59:03.840Z,82.03
2018-03-12T22:01:31.298Z,82.13
2018-03-12T22:03:58.757Z,81.72
2018-03-12T22:06:26.221Z,81.53
2018-03-12T22:08:53.669Z,82.47
2018-03-12T22:11:21.265Z,82.18
2018-03-12T22:13:48.721Z,82.04
2018-03-12T22:16:16.163Z,81.78
2018-03-12T22:18:43.642Z,81.46
2018-03-12T22:21:11.082Z,82.23
2018-03-12T22:23:38.821Z,81.98
2018-03-12T22:26:06.264Z,81.69
2018-03-12T22:28:33.725Z,81.35
2018-03-12T22:31:01.198Z,82.08
2018-03-12T22:33:28.633Z,80.98
2018-03-12T22:35:56.264Z,80.62
2018-03-12T22:38:23.710Z,80.72
2018-03-12T22:40:51.162Z,80.17
2018-03-12T22:43:18.624Z,80.08
2018-03-12T22:45:46.074Z,80.62
2018-03-12T22:48:13.921Z,80.28
2018-03-12T22:50:41.710Z,79.73
2018-03-12T22:53:09.199Z,80.18
2018-03-12T22:55:36.661Z,80.29
2018-03-12T22:58:04.121Z,80.69
2018-03-12T23:00:31.785Z,80.49
2018-03-12T23:02:59.240Z,81.05
2018-03-12T23:05:26.676Z,81.12
2018-03-12T23:07:54.134Z,81.27
2018-03-12T23:10:21.573Z,80.96
2018-03-12T23:12:49.252Z,80.47
2018-03-12T23:15:16.690Z,80.83
2018-03-12T23:17:44.138Z,81.33
2018-03-12T23:20:11.605Z,80.69
2018-03-12T23:22:39.046Z,80.89
2018-03-12T23:25:06.543Z,80.76
2018-03-12T23:27:33.984Z,80.84
2018-03-12T23:30:01.433Z,80.19
2018-03-12T23:32:28.903Z,80.45
2018-03-12T23:34:56.337Z,80.72
2018-03-12T23:37:23.830Z,80.41
2018-03-12T23:39:51.270Z,79.99
2018-03-12T23:42:18.709Z,80.35
2018-03-12T23:44:46.171Z,80.15
2018-03-12T23:47:13.629Z,80.81
2018-03-12T23:49:41.093Z,80.66
2018-03-12T23:52:08.534Z,80.57
2018-03-12T23:54:39.762Z,81.00
2018-03-12T23:57:07.225Z,81.86
